Time;durP1;ratioP1;P1;durP2;ratioP2;P2;SDS_P1;SDS_P2;PMS_P1;PMS_P2;Temp;Humidity;BMP_temperature;BMP_pressure;BME280_temperature;BME280_humidity;BME280_pressure;Samples;Min_cycle;Max_cycle;Signal;HPM_P1;HPM_P2
2022/08/26 00:01:33;;;;;;;3.83;3.13;;;25.90;54.50;;;-142.21;61.31;112049.66;5051739;28;20237;-72
2022/08/26 00:04:01;;;;;;;3.57;3.27;;;25.90;54.70;;;-142.21;61.58;112049.66;5052234;28;20209;-72
2022/08/26 00:06:29;;;;;;;3.50;3.20;;;25.80;54.90;;;-142.21;61.41;112049.66;5051909;28;20253;-72
2022/08/26 00:08:56;;;;;;;3.50;3.20;;;25.70;54.80;;;-142.21;61.37;112049.66;5052067;28;20228;-72
2022/08/26 00:11:26;;;;;;;3.33;2.90;;;25.70;54.90;;;-142.21;61.80;112049.66;5051743;28;20205;-72
2022/08/26 00:13:56;;;;;;;3.50;3.20;;;25.70;55.10;;;-142.21;61.97;112049.66;5051287;28;20190;-72
2022/08/26 00:16:24;;;;;;;3.60;3.30;;;25.60;55.20;;;-142.21;62.11;112049.66;5052054;28;20627;-72
2022/08/26 00:18:52;;;;;;;5.13;3.03;;;25.60;55.30;;;-142.21;61.79;112049.66;5051426;28;20214;-72
2022/08/26 00:21:20;;;;;;;3.60;3.30;;;25.60;55.30;;;-142.21;61.69;112049.66;5051769;28;20304;-72
2022/08/26 00:23:47;;;;;;;4.60;3.33;;;25.50;55.20;;;-142.21;62.30;112049.66;5051339;28;20617;-72
2022/08/26 00:26:15;;;;;;;4.10;3.33;;;25.50;55.30;;;-142.21;62.36;112049.66;5051634;28;20658;-72
2022/08/26 00:28:43;;;;;;;4.10;3.13;;;25.50;55.50;;;-142.21;61.84;112049.66;5051247;28;20290;-72
2022/08/26 00:31:12;;;;;;;3.10;2.73;;;25.50;55.40;;;-142.21;61.54;112049.66;5051960;28;20288;-72
2022/08/26 00:33:40;;;;;;;3.47;3.17;;;25.40;55.30;;;-142.21;61.16;112049.66;5050998;28;20210;-71
2022/08/26 00:36:09;;;;;;;4.93;3.50;;;25.40;55.30;;;-142.21;61.34;112049.66;5051372;28;20241;-72
2022/08/26 00:38:37;;;;;;;4.27;3.53;;;25.40;55.20;;;-142.21;61.71;112049.66;5051868;28;20209;-73
2022/08/26 00:41:06;;;;;;;5.40;3.40;;;25.40;55.30;;;-142.21;61.81;112049.66;5055567;28;20256;-71
2022/08/26 00:43:36;;;;;;;3.60;3.30;;;25.40;55.20;;;-142.21;62.09;112049.66;5055006;28;20666;-72
2022/08/26 00:46:12;;;;;;;3.93;3.20;;;25.40;55.40;;;-142.21;62.37;112049.66;5055616;28;20240;-72
2022/08/26 00:48:47;;;;;;;4.50;3.17;;;25.40;55.60;;;-142.21;62.58;112049.66;5021187;28;20216;-72
2022/08/26 00:51:18;;;;;;;3.50;3.10;;;25.40;55.60;;;-142.21;62.26;112049.66;5055769;28;20193;-72
2022/08/26 00:53:59;;;;;;;3.63;3.27;;;25.50;55.70;;;-142.21;62.90;112049.66;5055084;28;20190;-73
2022/08/26 00:56:31;;;;;;;3.63;3.33;;;25.30;55.80;;;-142.21;63.36;112049.66;5055210;28;20702;-72
2022/08/26 00:59:09;;;;;;;3.90;3.50;;;25.30;55.90;;;-142.21;64.14;112049.66;5055267;28;20404;-72
2022/08/26 01:01:39;;;;;;;3.90;3.50;;;25.30;56.10;;;-142.21;64.88;112049.66;5054780;28;20284;-72
2022/08/26 01:04:09;;;;;;;3.00;2.80;;;25.20;56.30;;;-142.21;64.22;112049.66;5055258;28;20229;-72
2022/08/26 01:06:36;;;;;;;3.77;3.10;;;25.20;56.40;;;-142.21;63.90;112049.66;5054831;28;20680;-72
2022/08/26 01:09:04;;;;;;;4.00;3.60;;;25.10;56.20;;;-142.21;64.19;112049.66;5055106;28;20640;-71
2022/08/26 01:11:32;;;;;;;3.77;3.47;;;25.10;56.40;;;-142.21;64.42;112049.66;5054978;28;20237;-72
2022/08/26 01:14:04;;;;;;;3.43;3.13;;;25.10;56.40;;;-142.21;64.28;112049.66;5035286;28;20217;-73
2022/08/26 01:16:32;;;;;;;4.17;3.30;;;25.00;56.40;;;-142.21;63.80;112049.66;5035009;28;20702;-73
2022/08/26 01:19:19;;;;;;;5.20;3.47;;;25.00;56.20;;;-142.21;63.68;112049.66;5034643;28;20212;-71
2022/08/26 01:21:56;;;;;;;4.50;4.03;;;25.00;56.30;;;-142.21;63.66;112049.66;5034312;28;20194;-72
2022/08/26 01:24:29;;;;;;;3.90;3.60;;;25.00;56.20;;;-142.21;63.47;112049.66;5034724;28;20229;-73
2022/08/26 01:27:03;;;;;;;3.63;3.33;;;25.00;56.20;;;-142.21;64.05;112049.66;5034711;28;20191;-71
2022/08/26 01:29:33;;;;;;;4.47;3.80;;;25.00;56.30;;;-142.21;64.55;112049.66;5034816;28;20657;-71
2022/08/26 01:32:02;;;;;;;4.10;3.60;;;25.00;56.30;;;-142.21;64.61;112049.66;5035380;28;20206;-72
2022/08/26 01:34:34;;;;;;;3.43;3.00;;;25.00;56.50;;;-142.21;64.43;112049.66;5034823;28;20297;-73
2022/08/26 01:37:06;;;;;;;3.70;3.40;;;24.90;56.40;;;-142.21;65.14;112049.66;5034607;28;20234;-72
2022/08/26 01:39:36;;;;;;;3.43;3.13;;;24.90;56.60;;;-142.21;65.33;112049.66;5034378;28;20297;-72
2022/08/26 01:42:11;;;;;;;5.43;3.33;;;24.80;56.60;;;-142.21;65.53;112049.66;5034911;28;20203;-72
2022/08/26 01:44:44;;;;;;;3.67;3.20;;;24.80;56.70;;;-142.21;65.98;112049.66;5033933;28;20289;-73
2022/08/26 01:47:16;;;;;;;3.60;3.30;;;24.80;56.90;;;-142.21;65.66;112049.66;5034830;28;20190;-71
2022/08/26 01:49:46;;;;;;;4.83;3.43;;;24.80;56.90;;;-142.21;66.13;112049.66;5033436;28;20190;-73
2022/08/26 01:52:24;;;;;;;3.87;3.47;;;24.80;57.00;;;-142.21;66.17;112049.66;5033819;28;20221;-73
2022/08/26 01:54:55;;;;;;;3.67;3.37;;;24.80;57.20;;;-142.21;65.94;112049.66;5034156;28;20198;-72
2022/08/26 01:57:25;;;;;;;4.40;4.00;;;24.70;57.10;;;-142.21;66.26;112049.66;5034381;28;20277;-72
2022/08/26 01:59:57;;;;;;;5.53;3.57;;;24.70;57.20;;;-142.21;66.75;112049.66;5033954;28;20271;-72
2022/08/26 02:02:25;;;;;;;4.40;4.00;;;24.60;57.10;;;-142.21;66.74;112049.66;5034668;28;20195;-72
2022/08/26 02:04:59;;;;;;;3.73;3.43;;;24.60;57.10;;;-142.21;67.64;112049.66;5033707;28;20206;-72
2022/08/26 02:07:28;;;;;;;3.93;3.63;;;24.60;57.50;;;-142.21;67.93;112049.66;5034042;28;20655;-72
2022/08/26 02:09:56;;;;;;;4.27;3.80;;;24.60;57.70;;;-142.21;67.75;112049.66;5033574;28;20264;-72
2022/08/26 02:12:26;;;;;;;4.10;3.73;;;24.50;57.50;;;-142.21;67.96;112049.66;5041211;28;20205;-72
2022/08/26 02:14:59;;;;;;;4.40;3.90;;;24.50;57.60;;;-142.21;69.03;112049.66;5053482;28;20205;-72
2022/08/26 02:17:35;;;;;;;5.07;3.80;;;24.40;58.00;;;-142.21;69.44;112049.66;5054228;28;20635;-72
2022/08/26 02:20:04;;;;;;;3.77;3.30;;;24.40;58.10;;;-142.21;69.31;112049.66;5053696;28;20213;-72
2022/08/26 02:22:32;;;;;;;4.57;3.97;;;24.30;58.10;;;-142.21;69.43;112049.66;5053937;28;20263;-72
2022/08/26 02:25:13;;;;;;;4.77;3.93;;;24.30;58.20;;;-142.21;69.42;112049.66;5018328;28;20217;-72
2022/08/26 02:27:41;;;;;;;5.07;3.80;;;24.20;58.30;;;-142.21;69.37;112049.66;5053394;28;20280;-72
2022/08/26 02:30:15;;;;;;;4.47;3.90;;;24.20;58.10;;;-142.21;69.30;112049.66;5053817;28;20601;-72
2022/08/26 02:32:42;;;;;;;4.30;3.83;;;24.30;58.50;;;-142.21;69.27;112049.66;5053247;28;20278;-72
2022/08/26 02:35:13;;;;;;;5.10;3.90;;;24.20;58.30;;;-142.21;70.07;112049.66;5053729;28;20209;-72
2022/08/26 02:37:40;;;;;;;6.00;3.93;;;24.10;58.40;;;-142.21;70.01;112049.66;5052647;28;20320;-71
2022/08/26 02:40:14;;;;;;;4.00;3.60;;;24.10;58.30;;;-142.21;70.16;112049.66;5053387;28;20212;-72
2022/08/26 02:42:41;;;;;;;3.90;3.60;;;24.10;58.50;;;-142.21;70.45;112049.66;5053433;28;20296;-71
2022/08/26 02:45:10;;;;;;;4.10;3.70;;;24.10;58.50;;;-142.21;70.71;112049.66;5053827;28;20292;-71
2022/08/26 02:47:38;;;;;;;4.30;3.90;;;24.10;58.70;;;-142.21;70.89;112049.66;5054145;28;20287;-72
2022/08/26 02:50:07;;;;;;;4.77;4.37;;;23.90;58.70;;;-142.21;71.52;112049.66;5053588;28;20243;-72
2022/08/26 02:52:34;;;;;;;4.30;3.50;;;23.90;59.10;;;-142.21;72.10;112049.66;5054030;28;20204;-72
2022/08/26 02:55:02;;;;;;;4.53;3.97;;;23.80;59.10;;;-142.21;72.30;112049.66;5053270;28;20263;-72
2022/08/26 02:57:31;;;;;;;3.97;3.63;;;23.80;59.40;;;-142.21;72.65;112049.66;5053184;28;20271;-72
2022/08/26 03:00:01;;;;;;;4.37;3.97;;;23.80;59.60;;;-142.21;73.13;112049.66;5053161;28;20703;-72
2022/08/26 03:02:28;;;;;;;4.40;4.00;;;23.70;59.70;;;-142.21;73.13;112049.66;5062347;28;20229;-72
2022/08/26 03:04:57;;;;;;;4.40;4.00;;;23.70;59.60;;;-142.21;73.01;112049.66;5066671;28;20209;-72
2022/08/26 03:07:24;;;;;;;3.80;3.50;;;23.70;59.40;;;-142.21;72.95;112049.66;5058342;28;20208;-72
2022/08/26 03:09:55;;;;;;;5.17;3.70;;;23.70;59.40;;;-142.21;72.84;112049.66;5052318;28;20711;-72
2022/08/26 03:12:23;;;;;;;4.03;3.70;;;23.80;59.60;;;-142.21;72.90;112049.66;5034387;28;20567;-71
2022/08/26 03:14:51;;;;;;;5.07;3.70;;;23.80;59.30;;;-142.21;73.37;112049.66;5052426;28;20210;-73
2022/08/26 03:17:19;;;;;;;4.20;3.80;;;23.70;59.50;;;-142.21;73.48;112049.66;5052932;28;20235;-71
2022/08/26 03:19:47;;;;;;;4.87;4.20;;;23.70;59.60;;;-142.21;72.68;112049.66;5052345;28;20279;-73
2022/08/26 03:22:14;;;;;;;4.10;3.70;;;23.70;59.50;;;-142.21;72.52;112049.66;5052454;28;20262;-71
2022/08/26 03:24:42;;;;;;;5.50;3.87;;;23.70;59.40;;;-142.21;72.62;112049.66;5052125;28;20201;-72
2022/08/26 03:27:09;;;;;;;4.13;3.80;;;23.70;59.40;;;-142.21;72.25;112049.66;5052824;28;20232;-72
2022/08/26 03:32:22;;;;;;;4.70;4.20;;;23.60;59.40;;;-142.21;72.82;112049.66;5052359;28;20192;-72
2022/08/26 03:34:49;;;;;;;4.00;3.60;;;23.60;59.60;;;-142.21;72.32;112049.66;5052106;28;20248;-72
2022/08/26 03:37:17;;;;;;;3.80;3.50;;;23.50;59.30;;;-142.21;72.63;112049.66;5052441;28;20238;-72
2022/08/26 03:39:45;;;;;;;5.60;4.10;;;23.50;59.40;;;-142.21;72.38;112049.66;5051782;28;20210;-72
2022/08/26 03:42:13;;;;;;;4.83;4.43;;;23.40;59.40;;;-142.21;72.43;112049.66;5052609;28;20210;-73
2022/08/26 03:44:41;;;;;;;4.90;4.40;;;23.50;59.50;;;-142.21;72.33;112049.66;5052222;28;20205;-73
2022/08/26 03:47:09;;;;;;;4.40;4.00;;;23.50;59.50;;;-142.21;72.42;112049.66;5052098;28;20205;-72
2022/08/26 03:49:38;;;;;;;6.87;4.20;;;23.50;59.50;;;-142.21;72.54;112049.66;5052449;28;20264;-72
2022/08/26 03:52:05;;;;;;;4.77;4.03;;;23.50;59.60;;;-142.21;72.82;112049.66;5051491;28;20263;-72
2022/08/26 03:54:33;;;;;;;4.30;3.90;;;23.40;59.50;;;-142.21;73.23;112049.66;5052470;28;20291;-72
2022/08/26 03:57:03;;;;;;;4.70;4.30;;;23.40;59.60;;;-142.21;73.98;112049.66;5051214;28;20230;-72
2022/08/26 03:59:30;;;;;;;5.10;4.40;;;23.40;59.80;;;-142.21;74.29;112049.66;5052183;28;20283;-72
2022/08/26 04:01:58;;;;;;;6.70;4.03;;;23.30;59.80;;;-142.21;74.02;112049.66;5051219;28;20208;-71
2022/08/26 04:04:26;;;;;;;5.57;4.37;;;23.30;59.90;;;-142.21;73.97;112049.66;5052168;28;20574;-72
2022/08/26 04:06:59;;;;;;;5.83;4.03;;;23.30;59.90;;;-142.21;74.38;112049.66;5051694;28;20201;-72
2022/08/26 04:09:30;;;;;;;5.43;4.93;;;23.20;60.00;;;-142.21;75.58;112049.66;5051822;28;20658;-72
2022/08/26 04:11:57;;;;;;;7.93;4.90;;;23.30;60.40;;;-142.21;76.33;112049.66;5016425;28;20202;-70
2022/08/26 04:14:27;;;;;;;5.07;4.57;;;23.20;60.60;;;-142.21;76.74;112049.66;5051148;28;20209;-72
2022/08/26 04:16:56;;;;;;;6.57;4.47;;;23.20;61.00;;;-142.21;75.99;112049.66;5051295;28;20253;-72
2022/08/26 04:19:25;;;;;;;6.97;4.30;;;23.10;60.70;;;-142.21;75.78;112049.66;5051905;28;20207;-71
2022/08/26 04:21:54;;;;;;;5.80;4.80;;;23.10;60.60;;;-142.21;75.65;112049.66;5051051;28;20208;-72
2022/08/26 04:24:26;;;;;;;4.77;4.23;;;23.10;60.70;;;-142.21;76.18;112049.66;5051671;28;20202;-72
2022/08/26 04:26:55;;;;;;;4.60;4.03;;;23.10;61.10;;;-142.21;76.64;112049.66;5051357;28;20271;-71
2022/08/26 04:29:26;;;;;;;4.77;4.00;;;23.10;61.10;;;-142.21;76.96;112049.66;5051828;28;20224;-71
2022/08/26 04:31:55;;;;;;;4.90;4.30;;;23.10;61.20;;;-142.21;77.32;112049.66;5051320;28;20203;-72
2022/08/26 04:34:23;;;;;;;6.90;4.53;;;23.10;61.60;;;-142.21;77.80;112049.66;5051504;28;20240;-72
2022/08/26 04:36:51;;;;;;;5.67;4.47;;;23.10;61.70;;;-142.21;78.12;112049.66;5050746;28;20320;-72
2022/08/26 04:39:19;;;;;;;5.80;4.37;;;23.10;61.70;;;-142.21;78.44;112049.66;5051980;28;20713;-72
2022/08/26 04:41:50;;;;;;;4.50;4.10;;;23.00;61.70;;;-142.21;77.96;112049.66;5051287;28;20205;-72
2022/08/26 04:44:18;;;;;;;6.73;4.80;;;23.10;61.90;;;-142.21;79.24;112049.66;5051345;28;20202;-71
2022/08/26 04:46:45;;;;;;;6.87;4.53;;;23.00;61.90;;;-142.21;79.48;112049.66;5051254;28;20242;-73
2022/08/26 04:49:13;;;;;;;6.97;4.77;;;23.00;62.20;;;-142.21;79.44;112049.66;5051471;28;20237;-72
2022/08/26 04:51:41;;;;;;;6.57;4.20;;;23.00;62.50;;;-142.21;78.79;112049.66;5051638;28;20203;-72
2022/08/26 04:54:08;;;;;;;8.00;4.53;;;23.00;62.20;;;-142.21;79.15;112049.66;5051101;28;20327;-72
2022/08/26 04:56:43;;;;;;;6.20;4.50;;;23.00;62.20;;;-142.21;79.33;112049.66;5051240;28;20201;-72
2022/08/26 04:59:14;;;;;;;4.70;4.20;;;23.00;62.50;;;-142.21;80.42;112049.66;5050627;28;20263;-72
2022/08/26 05:01:43;;;;;;;4.83;4.23;;;22.90;63.00;;;-142.21;80.33;112049.66;5051445;28;20197;-72
2022/08/26 05:04:11;;;;;;;6.50;4.07;;;22.90;63.00;;;-142.21;79.79;112049.66;5051183;28;20206;-72
2022/08/26 05:06:38;;;;;;;6.53;4.33;;;23.00;62.90;;;-142.21;81.00;112049.66;5051574;28;20384;-71
2022/08/26 05:09:07;;;;;;;4.63;4.23;;;23.00;63.40;;;-142.21;81.75;112049.66;5050830;28;20207;-72
2022/08/26 05:11:34;;;;;;;5.00;4.20;;;23.00;63.80;;;-142.21;81.59;112049.66;5051000;28;20212;-72
2022/08/26 05:14:02;;;;;;;4.20;3.80;;;22.90;63.80;;;-142.21;81.26;112049.66;5050545;28;20210;-72
2022/08/26 05:16:31;;;;;;;4.60;4.13;;;22.90;64.30;;;-142.21;80.90;112049.66;5051167;28;20202;-72
2022/08/26 05:18:59;;;;;;;4.70;4.07;;;22.90;63.50;;;-142.21;80.54;112049.66;5050610;28;20218;-72
2022/08/26 05:21:28;;;;;;;4.40;4.00;;;22.90;63.30;;;-142.21;81.17;112049.66;5051073;28;20241;-72
2022/08/26 05:23:56;;;;;;;4.80;4.30;;;22.90;63.60;;;-142.21;80.34;112049.66;5050548;28;20209;-72
2022/08/26 05:26:27;;;;;;;4.57;4.17;;;22.90;63.20;;;-142.21;79.90;112049.66;5054265;28;20624;-72
2022/08/26 05:28:56;;;;;;;4.77;4.33;;;22.90;63.10;;;-142.21;79.15;112049.66;5054250;28;20186;-71
2022/08/26 05:31:30;;;;;;;5.87;4.70;;;22.90;62.70;;;-142.21;79.06;112049.66;5054530;28;20210;-71
2022/08/26 05:34:03;;;;;;;5.63;4.13;;;22.90;62.60;;;-142.21;79.29;112049.66;5054436;28;20247;-71
2022/08/26 05:36:34;;;;;;;4.23;3.90;;;23.00;62.80;;;-142.21;79.80;112049.66;5054530;28;20221;-72
2022/08/26 05:39:07;;;;;;;6.40;4.20;;;23.00;62.90;;;-142.21;80.33;112049.66;5054438;28;20236;-72
2022/08/26 05:41:39;;;;;;;5.23;4.27;;;23.00;63.10;;;-142.21;80.07;112049.66;5054538;28;20649;-72
2022/08/26 05:44:10;;;;;;;5.77;4.43;;;23.00;63.10;;;-142.21;81.30;112049.66;5053972;28;20237;-72
2022/08/26 05:46:40;;;;;;;6.07;3.80;;;23.10;63.70;;;-142.21;81.65;112049.66;5054638;28;20222;-72
2022/08/26 05:49:08;;;;;;;4.43;4.00;;;23.10;63.70;;;-142.21;82.92;112049.66;5053724;28;20801;-72
2022/08/26 05:51:36;;;;;;;5.87;3.93;;;23.10;64.10;;;-142.21;83.40;112049.66;5054682;28;20302;-72
2022/08/26 05:54:05;;;;;;;5.47;4.37;;;23.20;64.30;;;-142.21;81.79;112049.66;5053893;28;20202;-72
2022/08/26 05:56:33;;;;;;;7.10;4.67;;;23.30;63.90;;;-142.21;81.08;112049.66;5054112;28;20205;-72
2022/08/26 05:59:01;;;;;;;6.37;4.23;;;23.20;63.50;;;-142.21;82.21;112049.66;5053303;28;20331;-72
2022/08/26 06:01:30;;;;;;;6.57;4.47;;;23.30;63.80;;;-142.21;83.14;112049.66;5054361;28;20575;-72
2022/08/26 06:04:01;;;;;;;4.97;4.50;;;23.30;64.40;;;-142.21;82.18;112049.66;5053499;28;20210;-71
2022/08/26 06:06:33;;;;;;;5.13;4.47;;;23.40;64.10;;;-142.21;81.83;112049.66;5054084;28;20202;-71
2022/08/26 06:09:05;;;;;;;5.70;4.77;;;23.40;64.30;;;-142.21;79.78;112049.66;5053513;28;20202;-72
2022/08/26 06:11:33;;;;;;;5.37;4.87;;;23.50;63.10;;;-142.21;80.49;112049.66;5054571;28;20196;-72
2022/08/26 06:14:04;;;;;;;5.03;4.63;;;23.50;63.10;;;-142.21;79.67;112049.66;5034379;28;20294;-71
2022/08/26 06:16:38;;;;;;;5.63;5.07;;;23.60;63.00;;;-142.21;78.44;112049.66;5034755;28;20197;-72
2022/08/26 06:19:07;;;;;;;4.97;4.50;;;23.70;62.50;;;-142.21;77.07;112049.66;5034076;28;20303;-72
2022/08/26 06:21:38;;;;;;;5.30;4.70;;;23.80;62.20;;;-142.21;77.37;112049.66;5034770;28;20218;-72
2022/08/26 06:27:00;;;;;;;5.17;4.73;;;23.80;62.90;;;-142.21;78.11;112049.66;5034010;28;20271;-72
2022/08/26 06:29:31;;;;;;;5.13;4.67;;;23.80;62.90;;;-142.21;78.07;112049.66;5036144;28;20198;-72
2022/08/26 06:32:04;;;;;;;5.43;4.77;;;23.80;63.10;;;-142.21;78.13;112049.66;5047196;28;20190;-71
2022/08/26 06:34:32;;;;;;;5.13;4.63;;;23.90;63.20;;;-142.21;78.21;112049.66;5046500;28;20191;-72
2022/08/26 06:37:04;;;;;;;6.93;4.60;;;23.90;63.10;;;-142.21;78.63;112049.66;5032971;28;20240;-72
2022/08/26 06:39:32;;;;;;;5.53;4.77;;;24.10;63.20;;;-142.21;76.96;112049.66;5033262;28;20213;-71
2022/08/26 06:41:59;;;;;;;5.30;4.80;;;24.20;62.40;;;-142.21;75.42;112049.66;5033122;28;20299;-72
2022/08/26 06:44:27;;;;;;;5.43;4.23;;;24.30;61.90;;;-142.21;74.46;112049.66;5033516;28;20214;-72
2022/08/26 06:46:55;;;;;;;5.30;4.80;;;24.40;61.30;;;-142.21;74.08;112049.66;5033087;28;20628;-72
2022/08/26 06:49:22;;;;;;;9.07;4.80;;;24.60;61.20;;;-142.21;72.63;112049.66;5033196;28;20213;-72
2022/08/26 06:51:50;;;;;;;5.00;4.50;;;24.80;60.70;;;-142.21;71.94;112049.66;4998684;28;20206;-72
2022/08/26 06:54:19;;;;;;;5.93;4.67;;;24.90;60.40;;;-142.21;71.10;112049.66;5032490;28;20300;-72
2022/08/26 06:56:47;;;;;;;5.57;4.53;;;25.00;60.00;;;-142.21;69.71;112049.66;5033458;28;20214;-72
2022/08/26 06:59:14;;;;;;;6.73;5.10;;;25.10;59.40;;;-142.21;69.02;112049.66;5032046;28;20253;-72
2022/08/26 07:01:44;;;;;;;5.87;4.20;;;25.30;59.10;;;-142.21;68.71;112049.66;5033057;28;20687;-73
2022/08/26 07:04:15;;;;;;;4.50;3.97;;;25.30;58.90;;;-142.21;64.76;112049.66;5032301;28;20742;-72
2022/08/26 07:06:49;;;;;;;4.10;3.70;;;25.30;57.70;;;-142.21;64.18;112049.66;5033263;28;20229;-72
2022/08/26 07:09:18;;;;;;;4.53;4.03;;;25.40;57.60;;;-142.21;64.04;112049.66;5032133;28;20285;-73
2022/08/26 07:11:46;;;;;;;4.50;4.10;;;25.50;57.70;;;-142.21;62.66;112049.66;5034245;28;20265;-73
2022/08/26 07:14:15;;;;;;;6.20;4.43;;;25.60;57.20;;;-142.21;62.62;112049.66;5052368;28;20690;-72
2022/08/26 07:16:42;;;;;;;5.33;4.30;;;25.50;57.00;;;-142.21;62.02;112049.66;5053065;28;20213;-73
2022/08/26 07:19:10;;;;;;;5.50;4.03;;;25.60;56.90;;;-142.21;61.21;112049.66;5051987;28;20229;-72
2022/08/26 07:21:39;;;;;;;5.33;3.83;;;25.60;56.70;;;-142.21;61.44;112049.66;5052679;28;20574;-72
2022/08/26 07:24:06;;;;;;;4.10;3.70;;;25.60;56.80;;;-142.21;61.36;112049.66;5052208;28;20237;-72
2022/08/26 07:26:35;;;;;;;4.03;3.63;;;25.70;56.60;;;-142.21;60.94;112049.66;5052601;28;20209;-72
2022/08/26 07:29:03;;;;;;;5.80;3.90;;;25.80;56.50;;;-142.21;60.40;112049.66;5051843;28;20241;-72
2022/08/26 07:31:34;;;;;;;4.37;3.73;;;25.90;56.30;;;-142.21;60.11;112049.66;5052757;28;20202;-72
2022/08/26 07:34:01;;;;;;;4.43;4.00;;;26.00;56.20;;;-142.21;60.83;112049.66;5052408;28;20624;-72
2022/08/26 07:36:29;;;;;;;4.93;4.43;;;26.10;56.00;;;-142.21;60.32;112049.66;5052220;28;20241;-71
2022/08/26 07:38:57;;;;;;;4.70;4.20;;;26.20;55.80;;;-142.21;60.11;112049.66;5051588;28;20226;-70
2022/08/26 07:41:26;;;;;;;5.63;5.07;;;26.10;56.00;;;-142.21;60.24;112049.66;5052192;28;20214;-71
2022/08/26 07:43:55;;;;;;;5.50;4.80;;;26.10;55.90;;;-142.21;60.07;112049.66;5052043;28;20300;-73
2022/08/26 07:46:23;;;;;;;5.00;4.50;;;26.20;56.00;;;-142.21;60.41;112049.66;5052155;28;20212;-72
2022/08/26 07:48:52;;;;;;;5.70;4.77;;;26.20;56.10;;;-142.21;59.61;112049.66;5051498;28;20205;-72
2022/08/26 07:51:22;;;;;;;5.33;4.47;;;26.40;55.70;;;-142.21;59.95;112049.66;5051712;28;20201;-72
2022/08/26 07:53:50;;;;;;;5.60;4.37;;;26.50;55.80;;;-142.21;57.63;112049.66;5051973;28;20731;-72
2022/08/26 07:56:18;;;;;;;5.13;4.30;;;26.70;55.30;;;-142.21;57.80;112049.66;5051656;28;20578;-72
2022/08/26 07:58:45;;;;;;;6.80;4.60;;;26.80;55.10;;;-142.21;56.91;112049.66;5051845;28;20238;-71
2022/08/26 08:01:14;;;;;;;5.43;4.37;;;27.00;54.80;;;-142.21;57.33;112049.66;5051422;28;20212;-72
2022/08/26 08:03:42;;;;;;;4.80;4.30;;;27.10;54.80;;;-142.21;57.05;112049.66;5052201;28;20201;-72
2022/08/26 08:06:10;;;;;;;6.47;4.60;;;27.20;54.80;;;-142.21;59.09;112049.66;5051531;28;20203;-72
2022/08/26 08:08:40;;;;;;;5.33;4.60;;;27.40;55.10;;;-142.21;59.66;112049.66;5051989;28;20247;-72
2022/08/26 08:11:07;;;;;;;6.70;4.50;;;27.60;55.00;;;-142.21;56.34;112049.66;5051164;28;20210;-72
2022/08/26 08:13:36;;;;;;;5.33;4.83;;;27.70;54.30;;;-142.21;54.97;112049.66;5051881;28;20208;-72
2022/08/26 08:16:04;;;;;;;7.33;5.33;;;27.80;53.80;;;-142.21;54.97;112049.66;5051477;28;20289;-73
2022/08/26 08:18:33;;;;;;;6.63;4.50;;;27.80;53.60;;;-142.21;56.13;112049.66;5051885;28;20233;-72
2022/08/26 08:21:02;;;;;;;8.47;5.60;;;27.90;53.80;;;-142.21;53.13;112049.66;5051337;28;20569;-72
2022/08/26 08:23:30;;;;;;;5.03;4.40;;;28.00;52.70;;;-142.21;54.06;112049.66;5051866;28;20561;-72
2022/08/26 08:26:01;;;;;;;5.17;4.77;;;27.90;53.00;;;-142.21;54.15;112049.66;5051533;28;20253;-72
2022/08/26 08:28:29;;;;;;;6.10;4.93;;;27.90;53.10;;;-142.21;52.75;112049.66;5051633;28;20189;-72
2022/08/26 08:30:56;;;;;;;6.17;5.40;;;27.80;52.90;;;-142.21;53.36;112049.66;5051606;28;20212;-72
2022/08/26 08:33:25;;;;;;;5.10;4.60;;;27.70;53.00;;;-142.21;53.83;112049.66;5051517;28;20207;-72
2022/08/26 08:35:55;;;;;;;6.90;4.70;;;27.70;53.30;;;-142.21;52.83;112049.66;5051591;28;20653;-72
2022/08/26 08:38:22;;;;;;;5.20;4.70;;;27.80;53.00;;;-142.21;53.35;112049.66;5050796;28;20232;-72
2022/08/26 08:40:50;;;;;;;5.63;4.90;;;27.90;52.90;;;-142.21;53.78;112049.66;5051310;28;20234;-72
2022/08/26 08:43:32;;;;;;;5.40;4.90;;;27.90;52.90;;;-142.21;52.75;112049.66;5050872;28;20212;-72
2022/08/26 08:46:08;;;;;;;5.20;4.70;;;28.00;52.70;;;-142.21;52.54;112049.66;5051101;28;20191;-72
2022/08/26 08:48:42;;;;;;;5.93;4.90;;;28.00;52.50;;;-142.21;52.79;112049.66;5051363;28;20186;-72
2022/08/26 08:51:28;;;;;;;6.27;5.03;;;28.00;52.60;;;-142.21;52.36;112049.66;5050843;28;20245;-72
2022/08/26 08:53:57;;;;;;;5.40;4.50;;;28.10;52.40;;;-142.21;52.30;112049.66;5051272;28;20199;-72
2022/08/26 08:56:30;;;;;;;7.43;5.17;;;28.20;52.30;;;-142.21;51.47;112049.66;5051087;28;20238;-72
2022/08/26 08:59:12;;;;;;;6.00;4.47;;;28.30;52.10;;;-142.21;52.33;112049.66;5051356;28;20279;-72
2022/08/26 09:02:05;;;;;;;4.80;4.37;;;28.40;52.10;;;-142.21;51.57;112049.66;5055314;28;20277;-72
2022/08/26 09:05:01;;;;;;;5.93;4.70;;;28.60;51.80;;;-142.21;50.63;112049.66;5055090;28;20660;-72
2022/08/26 09:07:37;;;;;;;5.40;4.67;;;28.50;51.00;;;-142.21;50.00;112049.66;5055672;28;20277;-71
2022/08/26 09:10:27;;;;;;;4.77;4.37;;;28.60;51.10;;;-142.21;51.17;112049.66;5035956;28;20591;-73
2022/08/26 09:12:54;;;;;;;5.20;4.63;;;28.70;51.70;;;-142.21;49.82;112049.66;5055408;28;20244;-74
2022/08/26 09:15:26;;;;;;;5.27;4.77;;;28.70;51.10;;;-142.21;49.67;112049.66;5054425;28;20211;-72
2022/08/26 09:18:07;;;;;;;5.40;4.37;;;28.70;51.10;;;-142.21;49.88;112049.66;5055148;28;20250;-71
2022/08/26 09:20:47;;;;;;;8.60;4.77;;;28.90;51.30;;;-142.21;49.98;112049.66;5054857;28;20706;-72
2022/08/26 09:23:17;;;;;;;5.43;4.93;;;29.00;51.00;;;-142.21;53.64;112049.66;5054690;28;20559;-73
2022/08/26 09:25:51;;;;;;;5.40;4.73;;;29.30;52.10;;;-142.21;51.11;112049.66;5054919;28;20212;-73
2022/08/26 09:28:22;;;;;;;5.90;5.27;;;29.50;51.60;;;-142.21;48.97;112049.66;5054359;28;20203;-72
2022/08/26 09:31:09;;;;;;;5.27;4.77;;;29.70;50.90;;;-142.21;48.75;112049.66;5055032;28;20619;-73
2022/08/26 09:33:39;;;;;;;5.80;4.93;;;29.90;50.60;;;-142.21;47.41;112049.66;5054920;28;20225;-72
2022/08/26 09:36:25;;;;;;;6.07;4.50;;;30.10;50.20;;;-142.21;46.85;112049.66;5054071;28;20240;-72
2022/08/26 09:38:54;;;;;;;4.53;4.13;;;30.30;49.80;;;-142.21;45.07;112049.66;5054493;28;20229;-73
2022/08/26 09:41:30;;;;;;;5.27;4.77;;;30.40;49.00;;;-142.21;44.70;112049.66;5054180;28;20212;-73
2022/08/26 09:44:17;;;;;;;4.83;4.30;;;30.60;49.00;;;-142.21;43.49;112049.66;5054881;28;20646;-74
2022/08/26 09:46:58;;;;;;;4.40;4.00;;;30.70;47.90;;;-142.21;44.66;112049.66;5054343;28;20235;-73
2022/08/26 09:49:30;;;;;;;4.30;3.90;;;30.70;48.10;;;-142.21;44.37;112049.66;5053925;28;20196;-74
2022/08/26 09:52:21;;;;;;;5.97;4.20;;;30.80;48.40;;;-142.21;43.32;112049.66;5054606;28;20190;-72
2022/08/26 09:55:06;;;;;;;5.53;4.57;;;30.90;47.60;;;-142.21;42.44;112049.66;5054177;28;20696;-74
2022/08/26 09:57:35;;;;;;;4.83;4.30;;;30.90;46.70;;;-142.21;42.08;112049.66;5054588;28;20259;-72
2022/08/26 10:00:26;;;;;;;4.83;4.43;;;31.00;47.10;;;-142.21;43.37;112049.66;5054027;28;20248;-72
2022/08/26 10:02:54;;;;;;;4.57;4.17;;;31.00;47.10;;;-142.21;42.58;112049.66;5054062;28;20200;-74
2022/08/26 10:05:39;;;;;;;3.93;3.63;;;31.20;47.00;;;-142.21;41.64;112049.66;5053478;28;20297;-73
2022/08/26 10:08:23;;;;;;;4.87;4.47;;;31.40;46.50;;;-142.21;43.04;112049.66;5053757;28;20220;-73
2022/08/26 10:10:52;;;;;;;5.57;4.97;;;31.50;47.00;;;-142.21;42.24;112049.66;5053617;28;20248;-72
2022/08/26 10:13:30;;;;;;;4.57;4.17;;;31.70;46.80;;;-142.21;40.91;112049.66;5052751;28;20203;-74
2022/08/26 10:16:14;;;;;;;5.33;4.83;;;31.70;45.90;;;-142.21;39.46;112049.66;5054124;28;20186;-73
2022/08/26 10:18:50;;;;;;;5.57;4.30;;;31.80;44.90;;;-142.21;39.73;112049.66;5053785;28;20255;-74
2022/08/26 10:21:25;;;;;;;6.37;4.63;;;31.80;45.30;;;-142.21;40.99;112049.66;5052981;28;20190;-73